Time;durP1;ratioP1;P1;durP2;ratioP2;P2;SDS_P1;SDS_P2;PMS_P1;PMS_P2;Temp;Humidity;BMP_temperature;BMP_pressure;BME280_temperature;BME280_humidity;BME280_pressure;Samples;Min_cycle;Max_cycle;Signal;HPM_P1;HPM_P2
2021/09/15 00:01:59;;;;;;;5.40;4.90;;;;;;;;;;485905;243;29169;-69
2021/09/15 00:04:00;;;;;;;7.50;5.33;;;17.90;99.90;;;;;;485411;243;27905;-69
2021/09/15 00:06:02;;;;;;;6.00;5.40;;;18.00;99.90;;;;;;484824;244;29233;-70
2021/09/15 00:08:03;;;;;;;5.93;5.43;;;18.00;99.90;;;;;;484765;244;28733;-70
2021/09/15 00:10:04;;;;;;;5.83;5.33;;;18.10;99.90;;;;;;484713;244;28831;-70
2021/09/15 00:12:05;;;;;;;6.47;5.67;;;18.10;99.90;;;;;;484758;244;28863;-72
2021/09/15 00:14:07;;;;;;;5.73;5.27;;;18.10;99.90;;;;;;484754;244;28821;-72
2021/09/15 00:16:08;;;;;;;6.27;5.33;;;18.20;99.90;;;;;;484784;244;28757;-72
2021/09/15 00:18:09;;;;;;;6.40;5.80;;;18.20;99.90;;;;;;484784;244;28718;-72
2021/09/15 00:20:10;;;;;;;5.70;5.10;;;18.40;99.90;;;;;;484766;244;28854;-70
2021/09/15 00:22:12;;;;;;;6.33;5.73;;;18.40;99.90;;;;;;484797;244;28754;-72
2021/09/15 00:24:13;;;;;;;5.13;4.73;;;18.60;99.90;;;;;;484764;244;28802;-70
2021/09/15 00:26:14;;;;;;;6.00;5.40;;;18.60;99.90;;;;;;484812;244;29285;-72
2021/09/15 00:28:15;;;;;;;6.17;5.60;;;18.70;99.90;;;;;;484749;244;29327;-70
2021/09/15 00:30:17;;;;;;;5.33;4.83;;;18.70;99.90;;;;;;484827;244;29322;-70
2021/09/15 00:32:18;;;;;;;5.57;5.03;;;18.70;99.90;;;;;;484850;244;29327;-70
2021/09/15 00:34:19;;;;;;;5.70;5.20;;;18.80;99.90;;;;;;484811;244;28808;-70
2021/09/15 00:36:20;;;;;;;5.73;4.93;;;18.90;99.90;;;;;;484811;244;28713;-70
2021/09/15 00:38:22;;;;;;;5.70;5.20;;;18.90;99.90;;;;;;484851;244;28717;-71
2021/09/15 00:40:23;;;;;;;6.20;5.60;;;18.90;99.90;;;;;;484824;244;28769;-72
2021/09/15 00:42:24;;;;;;;6.50;5.87;;;18.90;99.90;;;;;;484811;244;28749;-72
2021/09/15 00:44:25;;;;;;;5.87;5.37;;;18.90;99.90;;;;;;484825;245;28782;-72
2021/09/15 00:46:27;;;;;;;11.03;5.70;;;18.90;99.90;;;;;;484826;244;28844;-72
2021/09/15 00:48:28;;;;;;;8.60;6.23;;;18.90;99.90;;;;;;484805;244;28812;-71
2021/09/15 00:50:29;;;;;;;7.87;5.60;;;19.10;99.90;;;;;;484832;244;29329;-69
2021/09/15 00:52:30;;;;;;;8.20;5.30;;;19.20;99.90;;;;;;484847;244;29936;-70
2021/09/15 00:54:32;;;;;;;6.27;5.67;;;19.20;99.90;;;;;;484851;244;29193;-72
2021/09/15 00:56:33;;;;;;;5.27;4.83;;;19.20;99.90;;;;;;484867;244;28758;-72
2021/09/15 00:58:34;;;;;;;5.27;4.83;;;19.10;99.90;;;;;;484869;244;28709;-72
2021/09/15 01:00:35;;;;;;;5.50;5.00;;;19.10;99.90;;;;;;484863;244;28761;-72
2021/09/15 01:02:37;;;;;;;5.20;4.57;;;19.10;99.90;;;;;;484839;244;28740;-70
2021/09/15 01:04:38;;;;;;;5.23;4.50;;;19.10;99.90;;;;;;484834;244;28705;-72
2021/09/15 01:06:39;;;;;;;5.17;4.67;;;19.10;99.90;;;;;;484853;244;28765;-72
2021/09/15 01:08:40;;;;;;;5.30;4.57;;;19.10;99.90;;;;;;484853;244;28709;-72
2021/09/15 01:10:42;;;;;;;5.30;4.80;;;19.10;99.90;;;;;;484812;244;28764;-72
2021/09/15 01:12:43;;;;;;;5.73;5.23;;;19.10;99.90;;;;;;484828;244;28780;-70
2021/09/15 01:14:44;;;;;;;5.23;4.73;;;19.10;99.90;;;;;;484788;244;29158;-70
2021/09/15 01:16:45;;;;;;;4.83;4.43;;;19.10;99.90;;;;;;484828;244;29342;-70
2021/09/15 01:18:47;;;;;;;5.13;4.67;;;19.10;99.90;;;;;;484820;244;29231;-70
2021/09/15 01:20:48;;;;;;;4.97;4.43;;;19.10;99.90;;;;;;484812;245;29228;-70
2021/09/15 01:22:49;;;;;;;4.77;4.37;;;19.00;99.90;;;;;;484854;244;28800;-70
2021/09/15 01:24:50;;;;;;;7.97;5.20;;;19.00;99.90;;;;;;484813;244;28863;-72
2021/09/15 01:26:52;;;;;;;5.23;4.83;;;19.20;99.90;;;;;;484841;244;28774;-71
2021/09/15 01:28:53;;;;;;;5.70;5.20;;;19.20;99.90;;;;;;484839;244;28800;-72
2021/09/15 01:30:54;;;;;;;5.60;5.10;;;19.20;99.90;;;;;;484819;244;28718;-72
2021/09/15 01:32:56;;;;;;;9.20;5.80;;;19.20;99.90;;;;;;484847;244;28839;-72
2021/09/15 01:34:57;;;;;;;5.80;4.70;;;19.20;99.90;;;;;;484802;244;28719;-72
2021/09/15 01:36:58;;;;;;;9.93;5.50;;;19.10;99.90;;;;;;484818;244;28934;-72
2021/09/15 01:38:59;;;;;;;5.70;4.43;;;19.10;99.90;;;;;;484837;244;29174;-71
2021/09/15 01:41:01;;;;;;;5.23;4.83;;;19.10;99.90;;;;;;484817;244;29243;-71
2021/09/15 01:43:02;;;;;;;4.90;4.50;;;19.10;99.90;;;;;;484850;244;29263;-71
2021/09/15 01:45:03;;;;;;;5.20;4.70;;;19.10;99.90;;;;;;484841;244;29309;-71
2021/09/15 01:47:04;;;;;;;6.20;4.53;;;19.10;99.90;;;;;;484818;244;28744;-71
2021/09/15 01:49:06;;;;;;;5.57;5.07;;;19.10;99.90;;;;;;484809;244;28820;-71
2021/09/15 01:51:07;;;;;;;5.20;4.70;;;19.20;99.90;;;;;;484784;244;28741;-71
2021/09/15 01:53:08;;;;;;;4.73;4.33;;;19.10;99.90;;;;;;484812;244;28828;-71
2021/09/15 01:55:09;;;;;;;5.00;4.47;;;19.00;99.90;;;;;;484810;244;28764;-71
2021/09/15 01:57:11;;;;;;;4.70;4.30;;;19.00;99.90;;;;;;484835;245;28953;-71
2021/09/15 01:59:12;;;;;;;4.80;4.40;;;18.90;99.90;;;;;;484812;244;28709;-71
2021/09/15 02:01:13;;;;;;;4.97;4.57;;;18.90;99.90;;;;;;484822;245;28761;-71
2021/09/15 02:03:14;;;;;;;5.27;4.73;;;18.90;99.90;;;;;;484818;244;29335;-71
2021/09/15 02:05:16;;;;;;;4.83;4.33;;;18.90;99.90;;;;;;484795;244;29279;-71
2021/09/15 02:07:17;;;;;;;4.80;4.40;;;18.90;99.90;;;;;;484819;244;29214;-70
2021/09/15 02:09:18;;;;;;;4.90;4.50;;;18.90;99.90;;;;;;484829;244;30018;-71
2021/09/15 02:11:19;;;;;;;5.00;4.53;;;18.80;99.90;;;;;;484827;244;28784;-71
2021/09/15 02:13:21;;;;;;;5.13;4.30;;;18.80;99.90;;;;;;484813;245;28922;-71
2021/09/15 02:15:22;;;;;;;4.87;4.47;;;18.80;99.90;;;;;;484832;244;28788;-71
2021/09/15 02:17:23;;;;;;;5.40;4.90;;;18.80;99.90;;;;;;484827;244;28742;-71
2021/09/15 02:19:24;;;;;;;5.07;4.57;;;18.80;99.90;;;;;;484835;244;28693;-72
2021/09/15 02:21:26;;;;;;;5.20;4.33;;;18.80;99.90;;;;;;484831;244;28736;-71
2021/09/15 02:23:27;;;;;;;5.13;4.50;;;18.80;99.90;;;;;;484803;244;28839;-71
2021/09/15 02:25:28;;;;;;;5.67;5.17;;;18.80;99.90;;;;;;484806;244;28709;-71
2021/09/15 02:27:29;;;;;;;5.07;4.57;;;18.80;99.90;;;;;;484842;244;28835;-71
2021/09/15 02:29:31;;;;;;;5.57;5.07;;;18.80;99.90;;;;;;484819;244;29865;-71
2021/09/15 02:31:32;;;;;;;5.40;4.90;;;18.80;99.90;;;;;;484812;244;29167;-71
2021/09/15 02:33:33;;;;;;;5.23;4.63;;;18.80;99.90;;;;;;484849;244;29222;-71
2021/09/15 02:35:34;;;;;;;5.30;4.90;;;18.80;99.90;;;;;;484850;244;28845;-71
2021/09/15 02:37:36;;;;;;;6.20;4.93;;;18.80;99.90;;;;;;484839;244;28841;-70
2021/09/15 02:39:37;;;;;;;4.60;4.20;;;18.80;99.90;;;;;;484835;244;28850;-72
2021/09/15 02:41:38;;;;;;;5.20;4.70;;;18.70;99.90;;;;;;484853;244;28721;-71
2021/09/15 02:43:39;;;;;;;5.30;4.80;;;18.80;99.90;;;;;;484836;244;28820;-71
2021/09/15 02:45:41;;;;;;;4.80;4.40;;;18.80;99.90;;;;;;484883;244;28748;-71
2021/09/15 02:47:42;;;;;;;5.10;4.70;;;18.80;99.90;;;;;;484811;244;28824;-72
2021/09/15 02:49:43;;;;;;;5.20;4.80;;;18.80;99.90;;;;;;484816;244;28776;-72
2021/09/15 02:51:44;;;;;;;4.90;4.40;;;18.80;99.90;;;;;;484804;244;28721;-71
2021/09/15 02:53:46;;;;;;;5.00;4.50;;;18.70;99.90;;;;;;484809;244;29218;-71
2021/09/15 02:55:47;;;;;;;4.73;4.33;;;18.70;99.90;;;;;;484829;244;29262;-71
2021/09/15 02:57:48;;;;;;;5.30;4.70;;;18.80;99.90;;;;;;484834;244;29322;-71
2021/09/15 02:59:49;;;;;;;4.60;4.20;;;18.70;99.90;;;;;;484826;244;28773;-72
2021/09/15 03:01:51;;;;;;;4.70;4.30;;;18.70;99.90;;;;;;484789;244;28709;-71
2021/09/15 03:03:52;;;;;;;5.97;3.83;;;18.70;99.90;;;;;;484827;244;28729;-71
2021/09/15 03:05:53;;;;;;;4.60;4.20;;;18.70;99.90;;;;;;484816;244;28804;-71
2021/09/15 03:07:54;;;;;;;4.57;4.10;;;18.60;99.90;;;;;;484812;244;28709;-71
2021/09/15 03:09:56;;;;;;;4.83;4.40;;;18.60;99.90;;;;;;484816;243;29087;-71
2021/09/15 03:11:57;;;;;;;4.87;4.47;;;18.60;99.90;;;;;;484810;244;28721;-71
2021/09/15 03:13:58;;;;;;;4.57;4.17;;;18.60;99.90;;;;;;484803;244;28769;-71
2021/09/15 03:15:59;;;;;;;4.90;4.40;;;18.60;99.90;;;;;;484778;244;29295;-71
2021/09/15 03:18:01;;;;;;;4.40;4.00;;;18.60;99.90;;;;;;484783;244;29335;-71
2021/09/15 03:20:02;;;;;;;5.60;5.10;;;18.60;99.90;;;;;;484789;244;29251;-72
2021/09/15 03:22:03;;;;;;;4.60;4.20;;;18.60;99.90;;;;;;484824;244;29143;-71
2021/09/15 03:24:04;;;;;;;5.73;4.60;;;18.60;99.90;;;;;;484813;244;28759;-72
2021/09/15 03:26:06;;;;;;;5.30;4.80;;;18.50;99.90;;;;;;484794;244;28757;-72
2021/09/15 03:28:07;;;;;;;5.77;4.60;;;18.50;99.90;;;;;;484826;244;28765;-70
2021/09/15 03:30:08;;;;;;;5.40;4.90;;;18.50;99.90;;;;;;484771;244;29191;-70
2021/09/15 03:32:09;;;;;;;5.37;4.87;;;18.50;99.90;;;;;;484826;244;28709;-70
2021/09/15 03:34:11;;;;;;;5.70;5.20;;;18.50;99.90;;;;;;484822;244;28817;-70
2021/09/15 03:36:12;;;;;;;5.87;5.17;;;18.50;99.90;;;;;;484815;244;28804;-69
2021/09/15 03:38:13;;;;;;;7.40;4.70;;;18.40;99.90;;;;;;484829;244;28925;-70
2021/09/15 03:40:14;;;;;;;4.90;4.40;;;18.40;99.90;;;;;;484830;244;29226;-70
2021/09/15 03:42:16;;;;;;;5.87;4.60;;;18.30;99.90;;;;;;484795;244;29339;-70
2021/09/15 03:44:17;;;;;;;5.90;4.97;;;18.30;99.90;;;;;;484805;244;29224;-69
2021/09/15 03:46:18;;;;;;;5.40;4.90;;;18.30;99.90;;;;;;484829;244;28736;-70
2021/09/15 03:48:19;;;;;;;5.70;5.10;;;18.30;99.90;;;;;;484831;244;28749;-72
2021/09/15 03:50:21;;;;;;;5.70;4.57;;;18.30;99.90;;;;;;484809;244;28766;-71
2021/09/15 03:52:22;;;;;;;4.87;4.47;;;18.30;99.90;;;;;;484807;244;28717;-72
2021/09/15 03:54:23;;;;;;;5.00;4.60;;;18.20;99.90;;;;;;484821;244;28789;-71
2021/09/15 03:56:24;;;;;;;5.50;5.00;;;18.20;99.90;;;;;;484828;244;28772;-71
2021/09/15 03:58:26;;;;;;;5.20;4.80;;;18.20;99.90;;;;;;484792;244;28827;-71
2021/09/15 04:00:27;;;;;;;5.13;4.63;;;18.20;99.90;;;;;;484842;244;28825;-71
2021/09/15 04:02:28;;;;;;;5.40;4.90;;;18.20;99.90;;;;;;484829;244;28721;-72
2021/09/15 04:04:29;;;;;;;7.60;4.60;;;18.20;99.90;;;;;;484821;244;29219;-71
2021/09/15 04:06:31;;;;;;;5.13;4.60;;;18.20;99.90;;;;;;484844;244;29199;-72
2021/09/15 04:08:32;;;;;;;5.27;4.77;;;18.20;99.90;;;;;;484840;244;29252;-71
2021/09/15 04:10:33;;;;;;;5.13;4.73;;;18.20;99.90;;;;;;484844;244;29326;-71
2021/09/15 04:12:34;;;;;;;5.07;4.67;;;18.10;99.90;;;;;;484824;244;28713;-71
2021/09/15 04:14:36;;;;;;;4.87;4.47;;;18.10;99.90;;;;;;484837;244;28764;-71
2021/09/15 04:16:37;;;;;;;5.00;4.50;;;18.10;99.90;;;;;;484844;244;28819;-71
2021/09/15 04:18:38;;;;;;;4.60;3.63;;;18.10;99.90;;;;;;484834;244;28752;-70
2021/09/15 04:20:40;;;;;;;4.73;4.33;;;18.10;99.90;;;;;;484874;244;28832;-72
2021/09/15 04:22:42;;;;;;;4.90;4.40;;;18.10;99.90;;;;;;484827;244;28729;-72
2021/09/15 04:31:41;;;;;;;5.27;4.30;;;18.10;99.90;;;;;;484779;245;29311;-70
2021/09/15 04:33:43;;;;;;;4.60;4.20;;;;;;;;;;484702;244;28784;-70
2021/09/15 04:35:45;;;;;;;4.37;4.07;;;18.10;99.90;;;;;;484824;244;27390;-72
2021/09/15 04:37:46;;;;;;;4.40;4.00;;;18.10;99.90;;;;;;484826;244;28824;-72
2021/09/15 04:39:47;;;;;;;4.87;4.47;;;18.10;99.90;;;;;;484828;244;28810;-72
2021/09/15 04:41:48;;;;;;;4.80;4.43;;;18.10;99.90;;;;;;484830;244;28764;-70
2021/09/15 04:43:50;;;;;;;4.90;4.50;;;18.00;99.90;;;;;;484788;244;29223;-71
2021/09/15 04:45:51;;;;;;;4.83;4.43;;;18.10;99.90;;;;;;484827;244;28720;-70
2021/09/15 04:47:52;;;;;;;4.87;4.27;;;18.00;99.90;;;;;;484804;244;28765;-70
2021/09/15 04:49:53;;;;;;;5.17;4.77;;;18.00;99.90;;;;;;484828;244;28741;-70
2021/09/15 04:51:55;;;;;;;5.23;4.73;;;18.00;99.90;;;;;;484810;244;29259;-70
2021/09/15 04:53:56;;;;;;;4.90;4.50;;;18.00;99.90;;;;;;484817;244;29335;-70
2021/09/15 04:55:57;;;;;;;5.40;4.90;;;18.00;99.90;;;;;;484833;244;29295;-70
2021/09/15 04:57:58;;;;;;;5.17;4.63;;;18.00;99.90;;;;;;484780;244;29233;-70
2021/09/15 05:00:00;;;;;;;5.00;4.50;;;18.00;99.90;;;;;;484816;244;28804;-70
2021/09/15 05:02:01;;;;;;;5.33;4.83;;;18.10;99.90;;;;;;484795;244;28752;-69
2021/09/15 05:04:02;;;;;;;4.30;4.00;;;18.10;99.90;;;;;;484790;244;28836;-69
2021/09/15 05:06:03;;;;;;;5.10;4.70;;;18.10;99.90;;;;;;484825;244;28691;-69
2021/09/15 05:08:05;;;;;;;4.77;4.37;;;18.10;99.90;;;;;;484801;244;28765;-70
2021/09/15 05:10:06;;;;;;;4.60;4.20;;;18.10;99.90;;;;;;484851;245;28756;-70
2021/09/15 05:12:07;;;;;;;5.03;4.13;;;18.10;99.90;;;;;;484782;244;28757;-72
2021/09/15 05:14:08;;;;;;;4.80;4.40;;;18.10;99.90;;;;;;484811;244;28848;-69
2021/09/15 05:16:10;;;;;;;4.43;4.10;;;18.10;99.90;;;;;;484804;244;29169;-71
2021/09/15 05:18:11;;;;;;;5.53;4.50;;;18.10;99.90;;;;;;484734;244;29237;-70
2021/09/15 05:20:16;;;;;;;4.33;4.03;;;18.10;99.90;;;;;;484799;244;29336;-70
2021/09/15 05:22:13;;;;;;;5.73;4.60;;;18.10;99.90;;;;;;484437;245;29237;-70
2021/09/15 05:24:15;;;;;;;4.60;4.20;;;18.00;99.90;;;;;;484809;244;28824;-70
2021/09/15 05:26:16;;;;;;;4.63;4.23;;;18.00;99.90;;;;;;484807;244;28765;-70
2021/09/15 05:28:17;;;;;;;4.40;4.00;;;18.00;99.90;;;;;;484784;244;28868;-70
2021/09/15 05:30:18;;;;;;;4.50;4.10;;;18.00;99.90;;;;;;484795;244;28771;-70
2021/09/15 05:32:20;;;;;;;4.90;4.50;;;18.00;99.90;;;;;;484768;244;28839;-70
2021/09/15 05:34:21;;;;;;;6.30;4.00;;;18.00;99.90;;;;;;484791;244;28828;-72
2021/09/15 05:36:22;;;;;;;4.03;3.73;;;18.00;99.90;;;;;;484801;244;28812;-71
2021/09/15 05:38:23;;;;;;;4.07;3.77;;;18.00;99.90;;;;;;484810;244;28832;-72
2021/09/15 05:40:25;;;;;;;4.57;4.13;;;18.00;99.90;;;;;;484829;244;29262;-72
2021/09/15 05:42:26;;;;;;;5.30;4.80;;;18.00;99.90;;;;;;484803;244;29247;-72
2021/09/15 05:44:27;;;;;;;5.03;4.63;;;18.00;99.90;;;;;;484827;244;29227;-71
2021/09/15 05:46:29;;;;;;;4.50;4.17;;;18.00;99.90;;;;;;484847;244;29160;-70
2021/09/15 05:48:30;;;;;;;4.60;4.20;;;18.00;99.90;;;;;;484852;244;28752;-69
2021/09/15 05:50:31;;;;;;;4.63;4.23;;;17.90;99.90;;;;;;484842;244;28784;-70
2021/09/15 05:52:32;;;;;;;4.80;4.00;;;17.90;99.90;;;;;;484821;244;28801;-70
2021/09/15 05:54:33;;;;;;;4.73;4.33;;;17.90;99.90;;;;;;484789;244;28769;-70
2021/09/15 05:56:35;;;;;;;5.17;4.67;;;18.00;99.90;;;;;;484853;244;28824;-69
2021/09/15 05:58:36;;;;;;;4.60;4.20;;;17.90;99.90;;;;;;484759;243;28836;-72
2021/09/15 06:00:37;;;;;;;4.70;4.20;;;17.90;99.90;;;;;;484826;244;28796;-71
2021/09/15 06:02:38;;;;;;;4.57;4.20;;;17.90;99.90;;;;;;484800;244;28713;-71
2021/09/15 06:04:40;;;;;;;4.83;4.43;;;17.90;99.90;;;;;;484824;244;28749;-71
2021/09/15 06:06:41;;;;;;;5.40;4.23;;;17.90;99.90;;;;;;484824;244;29184;-71
2021/09/15 06:08:42;;;;;;;4.73;4.30;;;17.90;99.90;;;;;;484777;244;29322;-71
2021/09/15 06:10:43;;;;;;;5.00;4.50;;;17.90;99.90;;;;;;484810;244;29168;-71
2021/09/15 06:12:45;;;;;;;4.20;3.90;;;17.90;99.90;;;;;;484793;244;28729;-73
2021/09/15 06:14:46;;;;;;;4.23;3.83;;;17.90;99.90;;;;;;484816;244;28764;-72
2021/09/15 06:16:47;;;;;;;4.60;4.20;;;17.90;99.90;;;;;;484823;244;28802;-72
2021/09/15 06:18:48;;;;;;;4.77;4.40;;;17.90;99.90;;;;;;484783;244;28836;-70
2021/09/15 06:20:50;;;;;;;3.90;3.60;;;18.00;99.90;;;;;;484788;244;28788;-69
2021/09/15 06:22:51;;;;;;;6.20;4.00;;;18.00;99.90;;;;;;484801;244;28712;-70
2021/09/15 06:24:55;;;;;;;4.23;3.80;;;18.00;99.90;;;;;;484818;244;28756;-71
2021/09/15 06:26:56;;;;;;;4.17;3.87;;;18.00;99.90;;;;;;484807;244;29259;-72
2021/09/15 06:28:58;;;;;;;4.00;3.60;;;18.00;99.90;;;;;;484813;244;29268;-72
2021/09/15 06:30:59;;;;;;;4.13;3.83;;;18.00;99.90;;;;;;484819;244;28812;-72
2021/09/15 06:33:00;;;;;;;4.47;4.07;;;18.00;99.90;;;;;;484784;244;28741;-72
2021/09/15 06:35:01;;;;;;;4.17;3.87;;;18.10;99.90;;;;;;484821;244;28786;-70
2021/09/15 06:37:03;;;;;;;4.13;3.83;;;18.10;99.90;;;;;;484817;244;28745;-70
2021/09/15 06:39:04;;;;;;;3.80;3.50;;;18.10;99.90;;;;;;484777;244;28789;-70
2021/09/15 06:41:05;;;;;;;4.07;3.80;;;18.10;99.90;;;;;;484796;244;28741;-70
2021/09/15 06:43:06;;;;;;;3.57;3.27;;;18.20;99.90;;;;;;484797;244;29089;-72
2021/09/15 06:45:08;;;;;;;3.83;3.53;;;18.20;99.90;;;;;;484723;244;28859;-71
2021/09/15 06:47:09;;;;;;;4.33;3.90;;;18.20;99.90;;;;;;484812;244;28749;-71
2021/09/15 06:49:10;;;;;;;5.20;4.40;;;18.10;99.90;;;;;;484783;244;29149;-71
2021/09/15 06:51:11;;;;;;;4.10;3.80;;;18.10;99.90;;;;;;484805;244;29335;-72
2021/09/15 06:53:13;;;;;;;4.20;3.83;;;18.10;99.90;;;;;;484761;244;29305;-70
2021/09/15 06:55:14;;;;;;;4.17;3.77;;;18.10;99.90;;;;;;484814;244;28698;-72
2021/09/15 06:57:15;;;;;;;4.20;3.63;;;18.00;99.90;;;;;;484800;244;28774;-72
2021/09/15 06:59:16;;;;;;;5.30;4.03;;;18.00;99.90;;;;;;484792;244;28757;-71
2021/09/15 07:01:18;;;;;;;4.37;3.97;;;18.00;99.90;;;;;;484790;244;28772;-71
2021/09/15 07:03:19;;;;;;;3.80;3.50;;;18.00;99.90;;;;;;484810;244;28756;-72
2021/09/15 07:05:20;;;;;;;3.60;3.30;;;18.10;99.90;;;;;;484804;244;28713;-71
2021/09/15 07:07:21;;;;;;;4.40;4.00;;;18.00;99.90;;;;;;484801;244;28816;-72
2021/09/15 07:09:23;;;;;;;4.10;3.60;;;18.00;99.90;;;;;;484781;244;28717;-72
2021/09/15 07:11:24;;;;;;;4.37;4.00;;;18.00;99.90;;;;;;485886;243;28748;-71
2021/09/15 07:13:28;;;;;;;4.27;3.87;;;18.00;99.90;;;;;;485896;243;29311;-72
2021/09/15 07:15:26;;;;;;;4.70;4.30;;;18.00;99.90;;;;;;485761;243;29439;-72
2021/09/15 07:17:28;;;;;;;3.67;3.43;;;18.10;99.90;;;;;;485894;243;29337;-71
2021/09/15 07:19:29;;;;;;;5.53;4.17;;;18.20;99.90;;;;;;485913;243;28705;-72
2021/09/15 07:21:30;;;;;;;4.10;3.70;;;18.20;99.90;;;;;;485907;243;28745;-72
2021/09/15 07:23:31;;;;;;;4.03;3.60;;;18.20;99.90;;;;;;485893;243;28851;-71
2021/09/15 07:25:33;;;;;;;3.43;3.13;;;18.20;99.90;;;;;;485871;243;28713;-71
2021/09/15 07:27:34;;;;;;;3.83;3.30;;;18.20;99.90;;;;;;485920;243;28929;-70
2021/09/15 07:29:35;;;;;;;3.40;3.10;;;18.30;99.90;;;;;;485699;243;28841;-71
2021/09/15 07:31:39;;;;;;;3.30;3.00;;;18.30;99.90;;;;;;485878;243;28812;-71
2021/09/15 07:33:38;;;;;;;3.60;3.30;;;18.40;99.90;;;;;;485629;245;28704;-71
2021/09/15 07:35:39;;;;;;;3.00;2.80;;;18.50;99.90;;;;;;485929;243;28824;-71
2021/09/15 07:37:40;;;;;;;2.73;2.53;;;18.50;99.90;;;;;;485942;243;29386;-71
2021/09/15 07:39:41;;;;;;;3.23;3.03;;;18.50;99.90;;;;;;485863;243;29171;-71
2021/09/15 07:41:43;;;;;;;3.10;2.90;;;18.50;99.90;;;;;;485920;243;29238;-71
2021/09/15 07:43:44;;;;;;;3.53;3.23;;;18.50;99.90;;;;;;485910;243;28858;-71
2021/09/15 07:45:45;;;;;;;3.70;3.33;;;18.40;99.90;;;;;;485883;243;28788;-72
2021/09/15 07:47:46;;;;;;;3.17;2.93;;;18.40;99.90;;;;;;485927;243;28856;-71
2021/09/15 07:49:49;;;;;;;3.60;3.30;;;18.40;99.90;;;;;;485891;243;28716;-70
2021/09/15 07:51:49;;;;;;;4.40;3.43;;;18.40;99.90;;;;;;485835;245;28712;-71
2021/09/15 07:53:50;;;;;;;4.10;3.60;;;18.50;99.90;;;;;;485870;243;28840;-70
2021/09/15 07:55:51;;;;;;;3.50;3.20;;;18.50;99.90;;;;;;485896;243;28709;-71
2021/09/15 07:57:53;;;;;;;3.50;3.23;;;18.60;99.90;;;;;;485904;243;28855;-72
2021/09/15 07:59:54;;;;;;;4.33;3.47;;;18.60;99.90;;;;;;485897;243;28696;-71
2021/09/15 08:01:55;;;;;;;3.10;2.90;;;18.60;99.90;;;;;;485856;243;29175;-71
2021/09/15 08:03:56;;;;;;;3.70;3.30;;;18.60;99.90;;;;;;485886;243;29270;-71
2021/09/15 08:06:00;;;;;;;3.53;3.23;;;18.60;99.90;;;;;;485825;243;29378;-71
2021/09/15 08:08:01;;;;;;;3.67;3.37;;;18.60;99.90;;;;;;485712;245;29413;-71
2021/09/15 08:10:00;;;;;;;3.80;3.50;;;18.50;99.90;;;;;;485739;245;28713;-71
2021/09/15 08:12:01;;;;;;;3.60;3.30;;;18.50;99.90;;;;;;485892;243;28697;-70
2021/09/15 08:14:03;;;;;;;3.10;2.90;;;18.60;99.90;;;;;;485880;243;28822;-71
2021/09/15 08:16:04;;;;;;;3.43;3.13;;;18.60;99.90;;;;;;485858;243;28803;-71
2021/09/15 08:18:05;;;;;;;3.93;3.07;;;18.60;99.90;;;;;;485819;243;28827;-71
2021/09/15 08:20:06;;;;;;;3.67;3.33;;;18.60;99.90;;;;;;485883;243;28748;-71
2021/09/15 08:22:08;;;;;;;3.40;3.20;;;18.60;99.90;;;;;;485877;243;28713;-72
2021/09/15 08:24:09;;;;;;;3.60;3.30;;;18.60;99.90;;;;;;485781;243;28847;-72
2021/09/15 08:26:10;;;;;;;3.63;3.33;;;18.60;99.90;;;;;;485875;243;29157;-72
2021/09/15 08:28:11;;;;;;;3.33;3.10;;;18.60;99.90;;;;;;485864;243;29338;-72
2021/09/15 08:30:13;;;;;;;3.77;3.00;;;18.60;99.90;;;;;;485853;243;29309;-71
2021/09/15 08:32:14;;;;;;;3.13;2.93;;;18.70;99.90;;;;;;485905;243;29260;-72
2021/09/15 08:34:15;;;;;;;3.70;2.90;;;18.70;99.90;;;;;;485886;243;28950;-72
2021/09/15 08:36:16;;;;;;;3.83;3.53;;;18.80;99.90;;;;;;485926;243;28740;-71
2021/09/15 08:38:18;;;;;;;3.33;3.13;;;18.90;99.90;;;;;;485884;243;28830;-72
2021/09/15 08:40:19;;;;;;;3.63;2.70;;;18.80;99.90;;;;;;485893;238;29076;-70
2021/09/15 08:42:20;;;;;;;3.40;2.87;;;18.80;99.90;;;;;;485905;243;28820;-69
2021/09/15 08:44:21;;;;;;;3.73;3.43;;;18.80;99.90;;;;;;485908;243;28747;-72
2021/09/15 08:46:23;;;;;;;3.37;3.07;;;18.80;99.90;;;;;;485892;243;28722;-72
2021/09/15 08:48:24;;;;;;;3.37;3.17;;;18.80;99.90;;;;;;485911;243;28844;-72
2021/09/15 08:50:25;;;;;;;4.67;3.57;;;18.80;99.90;;;;;;485896;243;29272;-71
2021/09/15 08:52:27;;;;;;;3.60;3.30;;;18.70;99.90;;;;;;483411;240;29441;-71
2021/09/15 08:54:29;;;;;;;4.03;3.60;;;18.70;99.90;;;;;;480757;247;28817;-72
2021/09/15 08:56:30;;;;;;;3.70;2.87;;;18.70;99.90;;;;;;480820;246;28871;-71
2021/09/15 08:58:31;;;;;;;3.63;3.33;;;18.80;99.90;;;;;;480799;247;28935;-71
2021/09/15 09:00:33;;;;;;;3.60;3.30;;;18.80;99.90;;;;;;480819;247;28824;-70
2021/09/15 09:02:34;;;;;;;3.50;3.20;;;18.90;99.90;;;;;;480830;246;28884;-69
2021/09/15 09:04:35;;;;;;;3.73;3.43;;;18.90;99.90;;;;;;480741;246;29302;-70
2021/09/15 09:06:36;;;;;;;3.90;3.60;;;18.80;99.90;;;;;;480830;247;29435;-72
2021/09/15 09:08:38;;;;;;;3.50;3.20;;;18.70;99.90;;;;;;480817;246;29344;-72
2021/09/15 09:10:39;;;;;;;4.00;3.70;;;18.60;99.90;;;;;;480811;247;29356;-71
2021/09/15 09:12:40;;;;;;;4.73;3.10;;;18.60;99.90;;;;;;480823;247;28840;-69
2021/09/15 09:14:41;;;;;;;3.70;3.40;;;18.60;99.90;;;;;;480860;246;28915;-69
2021/09/15 09:16:43;;;;;;;3.83;3.40;;;18.60;99.90;;;;;;480844;247;28813;-70
2021/09/15 09:18:44;;;;;;;3.47;3.27;;;18.60;99.90;;;;;;480860;247;28936;-72
2021/09/15 09:20:45;;;;;;;4.70;3.40;;;18.60;99.90;;;;;;480850;246;28811;-70
2021/09/15 09:22:46;;;;;;;3.67;3.37;;;18.60;99.90;;;;;;480862;246;28967;-69
2021/09/15 09:24:54;;;;;;;3.30;3.03;;;18.50;99.90;;;;;;480853;247;28809;-72
2021/09/15 09:26:49;;;;;;;3.43;3.13;;;18.50;99.90;;;;;;480446;247;28858;-69
2021/09/15 09:28:50;;;;;;;3.57;3.27;;;18.50;99.90;;;;;;480819;246;29404;-70
2021/09/15 09:30:51;;;;;;;3.93;3.60;;;18.50;99.90;;;;;;480830;246;29270;-70
2021/09/15 09:32:53;;;;;;;3.90;3.53;;;18.50;99.90;;;;;;480841;246;29414;-70
2021/09/15 09:34:56;;;;;;;3.20;2.90;;;18.50;99.90;;;;;;480814;247;29325;-69
2021/09/15 09:36:55;;;;;;;6.60;3.70;;;18.50;99.90;;;;;;480746;247;28855;-70
2021/09/15 09:38:56;;;;;;;4.00;3.53;;;18.50;99.90;;;;;;480831;246;28855;-69
2021/09/15 09:40:58;;;;;;;4.10;3.70;;;18.50;99.90;;;;;;480799;247;28817;-69
2021/09/15 09:42:59;;;;;;;4.20;3.10;;;18.50;99.90;;;;;;480816;246;28875;-69
2021/09/15 09:45:00;;;;;;;3.23;3.03;;;18.50;99.90;;;;;;480793;246;28896;-72
2021/09/15 09:47:01;;;;;;;3.90;3.60;;;18.60;99.90;;;;;;480769;247;28858;-72
2021/09/15 09:49:03;;;;;;;3.50;2.73;;;18.60;99.90;;;;;;480796;247;28847;-71
2021/09/15 09:51:04;;;;;;;2.67;2.43;;;18.70;99.90;;;;;;480819;246;28862;-72
2021/09/15 09:53:05;;;;;;;3.30;3.00;;;18.70;99.90;;;;;;480685;247;29679;-72
2021/09/15 09:55:06;;;;;;;3.23;3.00;;;18.90;99.90;;;;;;480832;247;29244;-71
2021/09/15 09:57:08;;;;;;;3.30;2.80;;;19.00;99.90;;;;;;480862;246;29304;-72
2021/09/15 09:59:09;;;;;;;3.13;2.83;;;18.90;99.90;;;;;;480836;246;29423;-71
2021/09/15 10:01:12;;;;;;;3.17;2.87;;;18.90;99.90;;;;;;480854;247;28824;-72
2021/09/15 10:03:11;;;;;;;2.90;2.70;;;18.80;99.90;;;;;;480772;246;28857;-71
2021/09/15 10:05:13;;;;;;;3.40;2.50;;;18.90;99.90;;;;;;480820;247;28820;-72
2021/09/15 10:07:14;;;;;;;2.80;2.43;;;18.90;99.90;;;;;;480801;247;28946;-71
2021/09/15 10:09:15;;;;;;;2.33;2.23;;;18.90;99.90;;;;;;480841;246;28957;-71
2021/09/15 10:11:16;;;;;;;2.60;2.40;;;18.90;99.90;;;;;;480823;246;28827;-71
2021/09/15 10:13:18;;;;;;;2.60;2.40;;;18.90;99.90;;;;;;480833;246;28866;-71
2021/09/15 10:15:19;;;;;;;3.00;2.80;;;18.90;99.90;;;;;;480827;246;28812;-71
2021/09/15 10:17:20;;;;;;;2.63;2.43;;;19.00;99.90;;;;;;480846;247;28914;-71
2021/09/15 10:19:21;;;;;;;2.27;2.07;;;19.10;99.90;;;;;;480854;246;29373;-70
2021/09/15 10:21:23;;;;;;;2.20;2.10;;;19.20;99.90;;;;;;480833;246;29235;-71
2021/09/15 10:23:24;;;;;;;2.30;2.10;;;19.20;99.90;;;;;;480855;247;29325;-72
2021/09/15 10:25:25;;;;;;;2.17;2.07;;;19.20;99.90;;;;;;480842;247;28799;-70
2021/09/15 10:27:26;;;;;;;2.70;2.50;;;19.20;99.90;;;;;;480832;246;28858;-71
2021/09/15 10:29:31;;;;;;;2.43;2.23;;;19.20;99.90;;;;;;480859;246;28949;-71
2021/09/15 10:31:29;;;;;;;2.10;2.00;;;19.10;99.90;;;;;;480503;246;28811;-71
2021/09/15 10:33:30;;;;;;;1.83;1.73;;;19.20;99.90;;;;;;480886;246;28798;-71
2021/09/15 10:35:31;;;;;;;2.53;2.33;;;19.10;99.90;;;;;;480894;247;28811;-71
2021/09/15 10:37:33;;;;;;;2.40;2.20;;;19.20;99.90;;;;;;480840;247;28845;-71
2021/09/15 10:39:34;;;;;;;2.50;2.30;;;19.20;99.90;;;;;;480843;246;28845;-71